sensor_id;sensor_type;location;lat;lon;timestamp;pressure;altitude;pressure_sealevel;temperature;humidity
19259;BME280;9763;48.780;9.212;2022-07-12T00:01:42;98986.66;;;22.48;42.41
19259;BME280;9763;48.780;9.212;2022-07-12T00:05:08;98986.00;;;22.46;42.58
19259;BME280;9763;48.780;9.212;2022-07-12T00:08:31;98993.63;;;22.41;42.71
19259;BME280;9763;48.780;9.212;2022-07-12T00:11:55;99000.25;;;22.37;42.65
19259;BME280;9763;48.780;9.212;2022-07-12T00:15:21;99007.34;;;22.28;43.09
19259;BME280;9763;48.780;9.212;2022-07-12T00:18:45;99015.50;;;22.26;43.21
19259;BME280;9763;48.780;9.212;2022-07-12T00:22:08;99014.13;;;22.22;43.08
19259;BME280;9763;48.780;9.212;2022-07-12T00:25:32;99017.13;;;22.19;43.18
19259;BME280;9763;48.780;9.212;2022-07-12T00:28:56;99014.94;;;22.15;43.42
19259;BME280;9763;48.780;9.212;2022-07-12T00:32:21;99012.59;;;22.12;43.42
19259;BME280;9763;48.780;9.212;2022-07-12T00:35:45;99008.59;;;22.08;43.71
19259;BME280;9763;48.780;9.212;2022-07-12T00:39:08;99012.41;;;22.05;43.52
19259;BME280;9763;48.780;9.212;2022-07-12T00:42:32;99017.19;;;22.02;43.50
19259;BME280;9763;48.780;9.212;2022-07-12T00:45:56;99008.66;;;21.98;43.44
19259;BME280;9763;48.780;9.212;2022-07-12T00:49:23;99005.34;;;21.96;43.96
19259;BME280;9763;48.780;9.212;2022-07-12T00:52:49;99002.69;;;21.96;43.91
19259;BME280;9763;48.780;9.212;2022-07-12T00:56:14;99006.00;;;21.98;43.98
19259;BME280;9763;48.780;9.212;2022-07-12T00:59:37;99002.91;;;22.03;44.14
19259;BME280;9763;48.780;9.212;2022-07-12T01:03:03;99001.44;;;22.08;44.32
19259;BME280;9763;48.780;9.212;2022-07-12T01:06:29;99002.63;;;22.14;44.11
19259;BME280;9763;48.780;9.212;2022-07-12T01:09:54;99012.66;;;22.20;44.18
19259;BME280;9763;48.780;9.212;2022-07-12T01:13:18;99013.81;;;22.25;44.03
19259;BME280;9763;48.780;9.212;2022-07-12T01:16:42;99015.34;;;22.28;44.15
19259;BME280;9763;48.780;9.212;2022-07-12T01:20:07;99013.66;;;22.27;44.30
19259;BME280;9763;48.780;9.212;2022-07-12T01:23:34;99022.78;;;22.24;44.28
19259;BME280;9763;48.780;9.212;2022-07-12T01:26:57;99016.16;;;22.20;44.42
19259;BME280;9763;48.780;9.212;2022-07-12T01:30:22;99021.63;;;22.19;44.81
19259;BME280;9763;48.780;9.212;2022-07-12T01:33:45;99014.09;;;22.14;44.62
19259;BME280;9763;48.780;9.212;2022-07-12T01:37:11;99016.22;;;22.11;44.76
19259;BME280;9763;48.780;9.212;2022-07-12T01:40:37;99017.72;;;22.05;45.14
19259;BME280;9763;48.780;9.212;2022-07-12T01:44:01;99015.38;;;22.02;45.17
19259;BME280;9763;48.780;9.212;2022-07-12T01:47:28;99014.16;;;21.97;45.35
19259;BME280;9763;48.780;9.212;2022-07-12T01:50:52;99011.28;;;21.90;45.12
19259;BME280;9763;48.780;9.212;2022-07-12T01:54:16;99002.25;;;21.83;44.96
19259;BME280;9763;48.780;9.212;2022-07-12T01:57:43;98998.38;;;21.77;45.14
19259;BME280;9763;48.780;9.212;2022-07-12T02:01:38;98997.34;;;21.70;45.62
19259;BME280;9763;48.780;9.212;2022-07-12T02:05:04;98998.66;;;21.66;45.57
19259;BME280;9763;48.780;9.212;2022-07-12T02:08:27;99007.06;;;21.62;45.41
19259;BME280;9763;48.780;9.212;2022-07-12T02:11:53;99006.56;;;21.58;45.28
19259;BME280;9763;48.780;9.212;2022-07-12T02:15:18;99000.03;;;21.52;45.19
19259;BME280;9763;48.780;9.212;2022-07-12T02:18:41;99006.66;;;21.48;45.55
19259;BME280;9763;48.780;9.212;2022-07-12T02:22:05;99007.97;;;21.44;45.29
19259;BME280;9763;48.780;9.212;2022-07-12T02:25:29;99001.59;;;21.37;45.37
19259;BME280;9763;48.780;9.212;2022-07-12T02:28:54;99003.03;;;21.32;45.52
19259;BME280;9763;48.780;9.212;2022-07-12T02:32:19;99003.47;;;21.27;45.70
19259;BME280;9763;48.780;9.212;2022-07-12T02:35:43;98995.00;;;21.24;45.97
19259;BME280;9763;48.780;9.212;2022-07-12T02:39:06;98990.00;;;21.20;45.62
19259;BME280;9763;48.780;9.212;2022-07-12T02:42:30;99000.19;;;21.15;46.00
19259;BME280;9763;48.780;9.212;2022-07-12T02:46:01;98996.34;;;21.10;45.96
19259;BME280;9763;48.780;9.212;2022-07-12T02:49:27;99000.28;;;21.06;45.95
19259;BME280;9763;48.780;9.212;2022-07-12T02:52:50;98999.91;;;21.01;46.02
19259;BME280;9763;48.780;9.212;2022-07-12T02:56:14;99001.03;;;20.98;46.15
19259;BME280;9763;48.780;9.212;2022-07-12T02:59:38;98994.78;;;20.90;46.38
19259;BME280;9763;48.780;9.212;2022-07-12T03:03:02;99005.72;;;20.87;46.29
19259;BME280;9763;48.780;9.212;2022-07-12T03:06:27;99006.31;;;20.80;46.33
19259;BME280;9763;48.780;9.212;2022-07-12T03:09:51;99005.47;;;20.80;46.40
19259;BME280;9763;48.780;9.212;2022-07-12T03:13:14;99014.56;;;20.77;46.60
19259;BME280;9763;48.780;9.212;2022-07-12T03:16:38;99012.25;;;20.74;46.49
19259;BME280;9763;48.780;9.212;2022-07-12T03:20:04;99016.03;;;20.72;46.72
19259;BME280;9763;48.780;9.212;2022-07-12T03:23:32;99013.66;;;20.69;46.72
19259;BME280;9763;48.780;9.212;2022-07-12T03:26:56;99018.28;;;20.67;46.76
19259;BME280;9763;48.780;9.212;2022-07-12T03:30:20;99014.13;;;20.64;46.95
19259;BME280;9763;48.780;9.212;2022-07-12T03:33:43;99014.13;;;20.64;46.78
19259;BME280;9763;48.780;9.212;2022-07-12T03:37:07;99021.25;;;20.64;47.17
19259;BME280;9763;48.780;9.212;2022-07-12T03:40:33;99029.34;;;20.62;47.03
19259;BME280;9763;48.780;9.212;2022-07-12T03:43:56;99038.97;;;20.63;47.12
19259;BME280;9763;48.780;9.212;2022-07-12T03:47:20;99038.84;;;20.65;47.28
19259;BME280;9763;48.780;9.212;2022-07-12T03:50:44;99047.31;;;20.68;47.19
19259;BME280;9763;48.780;9.212;2022-07-12T03:54:08;99049.81;;;20.70;47.81
19259;BME280;9763;48.780;9.212;2022-07-12T03:57:33;99049.69;;;20.71;47.62
19259;BME280;9763;48.780;9.212;2022-07-12T04:00:57;99058.31;;;20.73;47.68
19259;BME280;9763;48.780;9.212;2022-07-12T04:04:21;99064.19;;;20.77;47.72
19259;BME280;9763;48.780;9.212;2022-07-12T04:07:44;99064.56;;;20.82;47.56
19259;BME280;9763;48.780;9.212;2022-07-12T04:11:08;99072.22;;;20.85;47.94
19259;BME280;9763;48.780;9.212;2022-07-12T04:14:33;99069.78;;;20.92;48.28
19259;BME280;9763;48.780;9.212;2022-07-12T04:17:57;99066.94;;;21.03;48.05
19259;BME280;9763;48.780;9.212;2022-07-12T04:21:20;99062.75;;;21.28;48.05
19259;BME280;9763;48.780;9.212;2022-07-12T04:24:44;99066.22;;;21.64;48.56
19259;BME280;9763;48.780;9.212;2022-07-12T04:28:08;99059.72;;;22.02;48.58
19259;BME280;9763;48.780;9.212;2022-07-12T04:31:33;99053.81;;;22.42;48.35
19259;BME280;9763;48.780;9.212;2022-07-12T04:34:56;99058.16;;;22.85;48.28
19259;BME280;9763;48.780;9.212;2022-07-12T04:38:20;99056.09;;;23.13;48.12
19259;BME280;9763;48.780;9.212;2022-07-12T04:41:44;99054.81;;;23.41;47.81
19259;BME280;9763;48.780;9.212;2022-07-12T04:45:08;99067.34;;;23.89;48.13
19259;BME280;9763;48.780;9.212;2022-07-12T04:48:33;99064.06;;;24.42;48.25
19259;BME280;9763;48.780;9.212;2022-07-12T04:51:57;99050.69;;;24.90;47.79
19259;BME280;9763;48.780;9.212;2022-07-12T04:55:20;99059.81;;;25.34;47.39
19259;BME280;9763;48.780;9.212;2022-07-12T04:58:44;99060.47;;;25.82;47.41
19259;BME280;9763;48.780;9.212;2022-07-12T05:02:08;99055.94;;;26.35;46.86
19259;BME280;9763;48.780;9.212;2022-07-12T05:05:33;99054.59;;;26.89;46.31
19259;BME280;9763;48.780;9.212;2022-07-12T05:08:56;99055.00;;;27.44;45.91
19259;BME280;9763;48.780;9.212;2022-07-12T05:12:20;99065.59;;;27.94;45.47
19259;BME280;9763;48.780;9.212;2022-07-12T05:15:44;99063.69;;;28.44;44.90
19259;BME280;9763;48.780;9.212;2022-07-12T05:19:07;99062.53;;;28.94;44.43
19259;BME280;9763;48.780;9.212;2022-07-12T05:22:32;99065.59;;;29.46;43.84
19259;BME280;9763;48.780;9.212;2022-07-12T05:25:56;99066.25;;;30.00;42.81
19259;BME280;9763;48.780;9.212;2022-07-12T05:29:20;99071.78;;;30.52;42.77
19259;BME280;9763;48.780;9.212;2022-07-12T05:32:43;99070.75;;;31.04;41.77
19259;BME280;9763;48.780;9.212;2022-07-12T05:36:07;99065.31;;;31.55;41.18
19259;BME280;9763;48.780;9.212;2022-07-12T05:39:32;99067.84;;;32.06;41.08
19259;BME280;9763;48.780;9.212;2022-07-12T05:42:56;99067.56;;;32.58;40.35
19259;BME280;9763;48.780;9.212;2022-07-12T05:46:21;99071.00;;;33.01;39.41
19259;BME280;9763;48.780;9.212;2022-07-12T05:49:44;99067.03;;;33.34;38.91
19259;BME280;9763;48.780;9.212;2022-07-12T05:53:08;99077.38;;;33.67;38.19
19259;BME280;9763;48.780;9.212;2022-07-12T05:56:48;99079.94;;;34.03;37.63
19259;BME280;9763;48.780;9.212;2022-07-12T06:00:13;99087.38;;;34.43;37.36
19259;BME280;9763;48.780;9.212;2022-07-12T06:03:37;99085.59;;;34.83;36.19
19259;BME280;9763;48.780;9.212;2022-07-12T06:07:01;99091.63;;;35.25;35.83
19259;BME280;9763;48.780;9.212;2022-07-12T06:10:25;99090.31;;;35.73;35.07
19259;BME280;9763;48.780;9.212;2022-07-12T06:13:50;99094.28;;;36.16;35.13
19259;BME280;9763;48.780;9.212;2022-07-12T06:17:14;99081.94;;;36.63;33.93
19259;BME280;9763;48.780;9.212;2022-07-12T06:20:37;99089.31;;;37.06;33.66
19259;BME280;9763;48.780;9.212;2022-07-12T06:24:01;99094.91;;;37.43;32.90
19259;BME280;9763;48.780;9.212;2022-07-12T06:27:25;99100.94;;;37.72;32.04
19259;BME280;9763;48.780;9.212;2022-07-12T06:30:50;99098.97;;;37.68;31.51
19259;BME280;9763;48.780;9.212;2022-07-12T06:34:14;99097.06;;;37.68;31.10
19259;BME280;9763;48.780;9.212;2022-07-12T06:37:38;99094.28;;;37.90;30.99
19259;BME280;9763;48.780;9.212;2022-07-12T06:41:01;99099.16;;;38.20;30.51
19259;BME280;9763;48.780;9.212;2022-07-12T06:44:25;99090.97;;;38.57;30.20
19259;BME280;9763;48.780;9.212;2022-07-12T06:47:51;99096.50;;;38.77;29.40
19259;BME280;9763;48.780;9.212;2022-07-12T06:51:15;99103.16;;;38.97;29.13
19259;BME280;9763;48.780;9.212;2022-07-12T06:54:39;99110.13;;;39.40;28.89
19259;BME280;9763;48.780;9.212;2022-07-12T06:58:03;99103.97;;;39.95;27.95
19259;BME280;9763;48.780;9.212;2022-07-12T07:01:28;99098.19;;;40.37;27.55
19259;BME280;9763;48.780;9.212;2022-07-12T07:04:53;99100.06;;;40.52;27.33
19259;BME280;9763;48.780;9.212;2022-07-12T07:08:17;99106.88;;;40.75;26.68
19259;BME280;9763;48.780;9.212;2022-07-12T07:11:41;99105.63;;;41.11;26.32
19259;BME280;9763;48.780;9.212;2022-07-12T07:15:06;99107.63;;;41.50;25.55
19259;BME280;9763;48.780;9.212;2022-07-12T07:18:30;99106.31;;;41.81;25.32
19259;BME280;9763;48.780;9.212;2022-07-12T07:21:55;99113.50;;;42.11;24.90
19259;BME280;9763;48.780;9.212;2022-07-12T07:25:21;99109.94;;;42.39;24.62
19259;BME280;9763;48.780;9.212;2022-07-12T07:28:44;99117.56;;;42.71;24.22
19259;BME280;9763;48.780;9.212;2022-07-12T07:32:26;99121.88;;;43.01;23.59
19259;BME280;9763;48.780;9.212;2022-07-12T07:35:51;99118.63;;;43.23;23.75
19259;BME280;9763;48.780;9.212;2022-07-12T07:39:16;99126.72;;;43.33;23.49
19259;BME280;9763;48.780;9.212;2022-07-12T07:42:42;99120.88;;;43.59;22.82
19259;BME280;9763;48.780;9.212;2022-07-12T07:46:06;99122.25;;;43.75;22.68
19259;BME280;9763;48.780;9.212;2022-07-12T07:49:30;99122.84;;;44.23;22.11
19259;BME280;9763;48.780;9.212;2022-07-12T07:52:54;99123.63;;;44.56;21.90
19259;BME280;9763;48.780;9.212;2022-07-12T07:56:19;99118.91;;;44.57;21.11
19259;BME280;9763;48.780;9.212;2022-07-12T07:59:43;99120.69;;;44.34;21.21
19259;BME280;9763;48.780;9.212;2022-07-12T08:03:06;99128.75;;;44.16;21.04
19259;BME280;9763;48.780;9.212;2022-07-12T08:06:31;99126.69;;;44.22;20.61
19259;BME280;9763;48.780;9.212;2022-07-12T08:09:56;99113.31;;;44.48;20.86
19259;BME280;9763;48.780;9.212;2022-07-12T08:13:21;99106.69;;;44.63;20.25
19259;BME280;9763;48.780;9.212;2022-07-12T08:16:44;99115.81;;;44.91;19.71
19259;BME280;9763;48.780;9.212;2022-07-12T08:20:09;99110.25;;;45.18;19.72
19259;BME280;9763;48.780;9.212;2022-07-12T08:23:53;99105.41;;;45.37;18.99
19259;BME280;9763;48.780;9.212;2022-07-12T08:27:18;99109.41;;;45.31;18.87
19259;BME280;9763;48.780;9.212;2022-07-12T08:30:43;99111.78;;;45.24;19.41
19259;BME280;9763;48.780;9.212;2022-07-12T08:34:09;99101.03;;;45.36;18.78
19259;BME280;9763;48.780;9.212;2022-07-12T08:37:32;99111.09;;;45.54;18.96
19259;BME280;9763;48.780;9.212;2022-07-12T08:40:56;99109.59;;;45.71;18.18
19259;BME280;9763;48.780;9.212;2022-07-12T08:44:19;99109.44;;;45.89;18.05
19259;BME280;9763;48.780;9.212;2022-07-12T08:47:44;99109.03;;;45.82;17.57
19259;BME280;9763;48.780;9.212;2022-07-12T08:51:11;99117.72;;;46.12;17.97
19259;BME280;9763;48.780;9.212;2022-07-12T08:54:39;99123.13;;;46.48;17.07
19259;BME280;9763;48.780;9.212;2022-07-12T08:58:05;99126.03;;;46.82;17.49
19259;BME280;9763;48.780;9.212;2022-07-12T09:01:43;99119.31;;;47.31;17.28
19259;BME280;9763;48.780;9.212;2022-07-12T09:05:11;99124.25;;;47.69;16.54
19259;BME280;9763;48.780;9.212;2022-07-12T09:08:39;99117.53;;;47.10;17.09
19259;BME280;9763;48.780;9.212;2022-07-12T09:12:04;99127.16;;;46.19;17.40
19259;BME280;9763;48.780;9.212;2022-07-12T09:15:27;99129.63;;;46.21;17.45
19259;BME280;9763;48.780;9.212;2022-07-12T09:19:11;99112.00;;;46.70;16.66
19259;BME280;9763;48.780;9.212;2022-07-12T09:22:36;99099.13;;;47.31;16.44
19259;BME280;9763;48.780;9.212;2022-07-12T09:26:07;99119.06;;;46.23;16.60
19259;BME280;9763;48.780;9.212;2022-07-12T09:29:32;99122.00;;;44.55;16.99
19259;BME280;9763;48.780;9.212;2022-07-12T09:33:02;99116.25;;;44.38;17.19
19259;BME280;9763;48.780;9.212;2022-07-12T09:36:55;99117.88;;;45.35;16.60
19259;BME280;9763;48.780;9.212;2022-07-12T09:40:20;99116.69;;;46.08;16.40
19259;BME280;9763;48.780;9.212;2022-07-12T09:43:45;99118.34;;;46.09;16.65
19259;BME280;9763;48.780;9.212;2022-07-12T09:47:10;99123.22;;;46.12;16.42
19259;BME280;9763;48.780;9.212;2022-07-12T09:50:36;99112.09;;;46.56;15.90
19259;BME280;9763;48.780;9.212;2022-07-12T09:54:03;99116.50;;;46.04;15.83
19259;BME280;9763;48.780;9.212;2022-07-12T09:57:33;99115.97;;;45.21;16.56
19259;BME280;9763;48.780;9.212;2022-07-12T10:00:59;99113.13;;;45.85;16.45
19259;BME280;9763;48.780;9.212;2022-07-12T10:04:24;99122.63;;;45.56;15.98
19259;BME280;9763;48.780;9.212;2022-07-12T10:07:52;99115.78;;;45.04;16.46
19259;BME280;9763;48.780;9.212;2022-07-12T10:11:16;99117.81;;;45.12;16.22
19259;BME280;9763;48.780;9.212;2022-07-12T10:15:09;99115.03;;;45.12;16.38
19259;BME280;9763;48.780;9.212;2022-07-12T10:18:37;99124.63;;;46.01;15.76
19259;BME280;9763;48.780;9.212;2022-07-12T10:22:03;99130.06;;;46.68;15.10
19259;BME280;9763;48.780;9.212;2022-07-12T10:25:34;99125.56;;;47.46;15.39
19259;BME280;9763;48.780;9.212;2022-07-12T10:29:03;99118.22;;;47.84;14.90
19259;BME280;9763;48.780;9.212;2022-07-12T10:32:34;99120.63;;;48.03;14.28
19259;BME280;9763;48.780;9.212;2022-07-12T10:36:00;99110.66;;;48.19;14.44
19259;BME280;9763;48.780;9.212;2022-07-12T10:39:25;99114.81;;;48.51;14.61
19259;BME280;9763;48.780;9.212;2022-07-12T10:43:24;99110.09;;;48.52;14.06
19259;BME280;9763;48.780;9.212;2022-07-12T10:47:03;99101.63;;;48.48;13.75
19259;BME280;9763;48.780;9.212;2022-07-12T10:50:55;99096.72;;;48.45;13.84
19259;BME280;9763;48.780;9.212;2022-07-12T10:54:21;99083.78;;;48.66;14.36
19259;BME280;9763;48.780;9.212;2022-07-12T10:57:48;99085.47;;;48.88;13.53
19259;BME280;9763;48.780;9.212;2022-07-12T11:01:16;99085.91;;;48.61;14.16
19259;BME280;9763;48.780;9.212;2022-07-12T11:04:46;99086.66;;;48.32;13.79
19259;BME280;9763;48.780;9.212;2022-07-12T11:08:15;99090.53;;;48.48;14.25
19259;BME280;9763;48.780;9.212;2022-07-12T11:11:42;99083.28;;;48.94;13.37
19259;BME280;9763;48.780;9.212;2022-07-12T11:15:07;99086.19;;;48.97;13.69
19259;BME280;9763;48.780;9.212;2022-07-12T11:18:32;99081.72;;;48.84;13.13
19259;BME280;9763;48.780;9.212;2022-07-12T11:21:57;99083.22;;;48.73;13.55
19259;BME280;9763;48.780;9.212;2022-07-12T11:25:25;99089.22;;;48.46;13.20
19259;BME280;9763;48.780;9.212;2022-07-12T11:28:48;99086.63;;;48.41;13.55
19259;BME280;9763;48.780;9.212;2022-07-12T11:32:12;99089.41;;;48.41;13.56
19259;BME280;9763;48.780;9.212;2022-07-12T11:35:36;99080.22;;;48.57;13.79
19259;BME280;9763;48.780;9.212;2022-07-12T11:38:59;99078.13;;;48.54;13.58
19259;BME280;9763;48.780;9.212;2022-07-12T11:42:24;99071.88;;;48.19;13.83
19259;BME280;9763;48.780;9.212;2022-07-12T11:45:49;99072.28;;;47.49;13.44
19259;BME280;9763;48.780;9.212;2022-07-12T11:49:15;99061.53;;;47.13;13.39
19259;BME280;9763;48.780;9.212;2022-07-12T11:52:38;99079.84;;;46.83;14.48
19259;BME280;9763;48.780;9.212;2022-07-12T11:56:05;99073.72;;;47.12;14.06
19259;BME280;9763;48.780;9.212;2022-07-12T11:59:30;99082.34;;;47.10;14.45
19259;BME280;9763;48.780;9.212;2022-07-12T12:02:54;99092.78;;;47.22;13.51
19259;BME280;9763;48.780;9.212;2022-07-12T12:06:18;99086.44;;;47.30;13.33
19259;BME280;9763;48.780;9.212;2022-07-12T12:09:59;99088.41;;;47.47;13.61
19259;BME280;9763;48.780;9.212;2022-07-12T12:13:25;99073.75;;;47.63;13.65
19259;BME280;9763;48.780;9.212;2022-07-12T12:16:50;99070.31;;;47.23;13.97
19259;BME280;9763;48.780;9.212;2022-07-12T12:20:18;99064.75;;;46.97;13.28
19259;BME280;9763;48.780;9.212;2022-07-12T12:23:42;99060.06;;;47.15;13.73
19259;BME280;9763;48.780;9.212;2022-07-12T12:27:22;99048.16;;;46.97;13.28
19259;BME280;9763;48.780;9.212;2022-07-12T12:30:52;99044.53;;;46.88;13.76
19259;BME280;9763;48.780;9.212;2022-07-12T12:34:17;99033.88;;;46.56;13.59
19259;BME280;9763;48.780;9.212;2022-07-12T12:37:48;99038.50;;;46.30;14.03
19259;BME280;9763;48.780;9.212;2022-07-12T12:41:17;99040.66;;;46.33;13.91
19259;BME280;9763;48.780;9.212;2022-07-12T12:44:45;99036.47;;;46.13;13.42
19259;BME280;9763;48.780;9.212;2022-07-12T12:48:08;99031.41;;;46.06;13.72
19259;BME280;9763;48.780;9.212;2022-07-12T12:51:54;99034.88;;;45.67;13.65
19259;BME280;9763;48.780;9.212;2022-07-12T12:55:18;99031.06;;;45.54;13.66
19259;BME280;9763;48.780;9.212;2022-07-12T12:58:42;99032.97;;;45.32;13.95
19259;BME280;9763;48.780;9.212;2022-07-12T13:02:07;99040.53;;;45.40;14.01
19259;BME280;9763;48.780;9.212;2022-07-12T13:05:31;99030.22;;;45.32;14.10
19259;BME280;9763;48.780;9.212;2022-07-12T13:08:56;99036.22;;;44.98;14.74
19259;BME280;9763;48.780;9.212;2022-07-12T13:12:20;99041.22;;;44.96;14.64
19259;BME280;9763;48.780;9.212;2022-07-12T13:15:45;99039.44;;;44.91;14.31
19259;BME280;9763;48.780;9.212;2022-07-12T13:19:08;99038.63;;;44.91;14.78
19259;BME280;9763;48.780;9.212;2022-07-12T13:22:32;99042.34;;;44.95;14.53
19259;BME280;9763;48.780;9.212;2022-07-12T13:25:57;99032.34;;;44.99;14.77
19259;BME280;9763;48.780;9.212;2022-07-12T13:29:20;99035.09;;;44.99;14.83
19259;BME280;9763;48.780;9.212;2022-07-12T13:32:45;99033.28;;;44.94;14.52
19259;BME280;9763;48.780;9.212;2022-07-12T13:36:09;99031.97;;;44.64;14.71
19259;BME280;9763;48.780;9.212;2022-07-12T13:39:33;99035.88;;;44.36;14.73
19259;BME280;9763;48.780;9.212;2022-07-12T13:43:16;99047.31;;;43.45;15.16
19259;BME280;9763;48.780;9.212;2022-07-12T13:46:39;99027.59;;;42.34;15.80
19259;BME280;9763;48.780;9.212;2022-07-12T13:50:04;99025.81;;;41.23;17.20
19259;BME280;9763;48.780;9.212;2022-07-12T13:53:28;99039.41;;;39.84;17.91
19259;BME280;9763;48.780;9.212;2022-07-12T13:56:52;99041.75;;;38.47;19.08
19259;BME280;9763;48.780;9.212;2022-07-12T14:00:17;99040.84;;;37.30;20.02
19259;BME280;9763;48.780;9.212;2022-07-12T14:03:41;99051.25;;;36.46;21.11
19259;BME280;9763;48.780;9.212;2022-07-12T14:07:05;99040.91;;;35.76;21.01
19259;BME280;9763;48.780;9.212;2022-07-12T14:10:29;99047.56;;;35.23;21.54
19259;BME280;9763;48.780;9.212;2022-07-12T14:13:54;99048.06;;;34.80;22.04
19259;BME280;9763;48.780;9.212;2022-07-12T14:17:20;99045.88;;;34.42;22.04
19259;BME280;9763;48.780;9.212;2022-07-12T14:20:44;99041.78;;;34.16;22.96
19259;BME280;9763;48.780;9.212;2022-07-12T14:24:08;99046.59;;;33.91;22.98
19259;BME280;9763;48.780;9.212;2022-07-12T14:27:33;99033.56;;;33.70;23.12
19259;BME280;9763;48.780;9.212;2022-07-12T14:30:58;99030.34;;;33.49;22.88
19259;BME280;9763;48.780;9.212;2022-07-12T14:34:23;99027.25;;;33.34;23.49
19259;BME280;9763;48.780;9.212;2022-07-12T14:37:47;99027.31;;;33.16;23.63
19259;BME280;9763;48.780;9.212;2022-07-12T14:41:10;99025.22;;;33.00;23.28
19259;BME280;9763;48.780;9.212;2022-07-12T14:44:35;99030.81;;;32.86;24.02
19259;BME280;9763;48.780;9.212;2022-07-12T14:47:59;99032.25;;;32.71;23.80
19259;BME280;9763;48.780;9.212;2022-07-12T14:51:24;99029.69;;;32.58;24.26
19259;BME280;9763;48.780;9.212;2022-07-12T14:54:48;99029.63;;;32.46;24.12
19259;BME280;9763;48.780;9.212;2022-07-12T14:58:13;99021.81;;;32.38;24.02
19259;BME280;9763;48.780;9.212;2022-07-12T15:01:37;99018.13;;;32.32;24.26
19259;BME280;9763;48.780;9.212;2022-07-12T15:05:01;99020.44;;;32.29;24.43
19259;BME280;9763;48.780;9.212;2022-07-12T15:08:29;99017.63;;;32.24;25.16
19259;BME280;9763;48.780;9.212;2022-07-12T15:11:52;99019.50;;;32.23;24.55
19259;BME280;9763;48.780;9.212;2022-07-12T15:15:16;99014.09;;;32.23;25.09
19259;BME280;9763;48.780;9.212;2022-07-12T15:18:46;99016.41;;;32.19;25.37
19259;BME280;9763;48.780;9.212;2022-07-12T15:22:12;99009.75;;;32.15;24.97
19259;BME280;9763;48.780;9.212;2022-07-12T15:25:37;99009.63;;;32.10;25.59
19259;BME280;9763;48.780;9.212;2022-07-12T15:29:03;99010.50;;;32.04;25.43
19259;BME280;9763;48.780;9.212;2022-07-12T15:32:27;99013.63;;;32.01;25.52
19259;BME280;9763;48.780;9.212;2022-07-12T15:35:51;99008.31;;;31.95;25.04
19259;BME280;9763;48.780;9.212;2022-07-12T15:39:15;99017.69;;;31.92;25.35
19259;BME280;9763;48.780;9.212;2022-07-12T15:42:41;99016.44;;;31.88;25.42
19259;BME280;9763;48.780;9.212;2022-07-12T15:46:05;99012.97;;;31.88;25.14
19259;BME280;9763;48.780;9.212;2022-07-12T15:49:29;99000.09;;;31.83;25.44
19259;BME280;9763;48.780;9.212;2022-07-12T15:52:53;99006.34;;;31.83;25.36
19259;BME280;9763;48.780;9.212;2022-07-12T15:56:34;99003.84;;;31.82;25.27
19259;BME280;9763;48.780;9.212;2022-07-12T16:00:00;98998.66;;;31.80;25.45
19259;BME280;9763;48.780;9.212;2022-07-12T16:03:29;99001.81;;;31.77;25.35
19259;BME280;9763;48.780;9.212;2022-07-12T16:06:53;99002.50;;;31.73;25.42
19259;BME280;9763;48.780;9.212;2022-07-12T16:10:17;99002.31;;;31.68;25.43
19259;BME280;9763;48.780;9.212;2022-07-12T16:13:41;98997.56;;;31.63;25.61
19259;BME280;9763;48.780;9.212;2022-07-12T16:17:07;98991.56;;;31.61;26.35
19259;BME280;9763;48.780;9.212;2022-07-12T16:20:32;98990.13;;;31.59;26.25
19259;BME280;9763;48.780;9.212;2022-07-12T16:23:55;98990.72;;;31.61;26.45
19259;BME280;9763;48.780;9.212;2022-07-12T16:27:19;98989.06;;;31.60;25.54
19259;BME280;9763;48.780;9.212;2022-07-12T16:30:43;98987.41;;;31.59;26.36
19259;BME280;9763;48.780;9.212;2022-07-12T16:34:08;98984.94;;;31.57;26.23
19259;BME280;9763;48.780;9.212;2022-07-12T16:37:32;98992.81;;;31.59;26.00
19259;BME280;9763;48.780;9.212;2022-07-12T16:40:55;98995.09;;;31.62;26.64
19259;BME280;9763;48.780;9.212;2022-07-12T16:44:19;98986.75;;;31.63;25.82
19259;BME280;9763;48.780;9.212;2022-07-12T16:47:44;98993.22;;;31.62;26.53
19259;BME280;9763;48.780;9.212;2022-07-12T16:51:09;98984.50;;;31.60;26.49
19259;BME280;9763;48.780;9.212;2022-07-12T16:54:46;98983.28;;;31.56;26.62
19259;BME280;9763;48.780;9.212;2022-07-12T16:58:16;98982.88;;;31.52;26.01
19259;BME280;9763;48.780;9.212;2022-07-12T17:01:43;98983.34;;;31.49;26.21
19259;BME280;9763;48.780;9.212;2022-07-12T17:05:08;98981.91;;;31.47;25.98
19259;BME280;9763;48.780;9.212;2022-07-12T17:08:33;98984.00;;;31.45;26.64
19259;BME280;9763;48.780;9.212;2022-07-12T17:11:57;98988.75;;;31.49;26.63
19259;BME280;9763;48.780;9.212;2022-07-12T17:15:25;98982.44;;;31.56;26.48
19259;BME280;9763;48.780;9.212;2022-07-12T17:18:49;98981.16;;;31.65;25.80
19259;BME280;9763;48.780;9.212;2022-07-12T17:22:17;98984.63;;;31.72;26.29
19259;BME280;9763;48.780;9.212;2022-07-12T17:25:42;98981.09;;;31.71;25.81
19259;BME280;9763;48.780;9.212;2022-07-12T17:29:07;98986.94;;;31.68;25.74
19259;BME280;9763;48.780;9.212;2022-07-12T17:32:30;98989.47;;;31.63;25.84
19259;BME280;9763;48.780;9.212;2022-07-12T17:35:56;98996.34;;;31.59;25.75
19259;BME280;9763;48.780;9.212;2022-07-12T17:39:21;99000.72;;;31.54;26.39
19259;BME280;9763;48.780;9.212;2022-07-12T17:42:46;98992.47;;;31.48;26.43
19259;BME280;9763;48.780;9.212;2022-07-12T17:46:09;98991.69;;;31.41;25.94
19259;BME280;9763;48.780;9.212;2022-07-12T17:49:33;98985.53;;;31.34;25.92
19259;BME280;9763;48.780;9.212;2022-07-12T17:52:57;98997.44;;;31.27;26.57
19259;BME280;9763;48.780;9.212;2022-07-12T17:56:21;98988.13;;;31.16;26.51
19259;BME280;9763;48.780;9.212;2022-07-12T17:59:46;98993.78;;;31.08;26.13
19259;BME280;9763;48.780;9.212;2022-07-12T18:03:10;98989.25;;;31.02;26.72
19259;BME280;9763;48.780;9.212;2022-07-12T18:06:34;98993.84;;;30.95;26.47
19259;BME280;9763;48.780;9.212;2022-07-12T18:09:58;98983.13;;;30.88;26.88
19259;BME280;9763;48.780;9.212;2022-07-12T18:13:22;98987.47;;;30.83;26.30
19259;BME280;9763;48.780;9.212;2022-07-12T18:17:04;98989.19;;;30.77;26.88
19259;BME280;9763;48.780;9.212;2022-07-12T18:20:46;98985.47;;;30.71;26.84
19259;BME280;9763;48.780;9.212;2022-07-12T18:24:14;98994.44;;;30.65;26.40